Clipper Saga — LAFY6 — position and weather

sailwx.info

Track history (hours):
 
Tides and Currents Weather Stations Pressure Air Temp Water Temp Dewpoint Dewpoint Depression Visibility Wind Speed Wind Dir Waves Ship Positions

Clipper Saga

Last reported at 2016-Feb-12 05:32 UTC. Time now 2016-Feb-12 05:38 UTC.
Position N 56°02' W 003°06'.

Length 89 m; draft 5.9 m.

Type: Ship (hazmat cat C). MMSI: 246657008.

Date/timePositionNaut miles runAvg speedWind from/ knotsBaromVisibWave heightAir tempDewpointWater temp
2016-Feb-12 05:32N 56°02' W 003°06'0 0.0
2016-Feb-12 04:32N 56°02' W 003°06'0 0.0
2016-Feb-12 03:32N 56°02' W 003°06'0 0.0
2016-Feb-12 02:32N 56°02' W 003°06'0 0.0
2016-Feb-12 01:32N 56°02' W 003°06'0 0.0
2016-Feb-12 00:32N 56°02' W 003°06'0 0.0
2016-Feb-11 23:32N 56°02' W 003°06'0 0.0
2016-Feb-11 22:32N 56°02' W 003°06'0 0.0
2016-Feb-11 21:32N 56°02' W 003°06'0 0.0
2016-Feb-11 20:32N 56°02' W 003°06'0 0.1
2016-Feb-11 19:32N 56°02' W 003°06'0 0.0
2016-Feb-11 18:32N 56°02' W 003°06'0 0.0
2016-Feb-11 17:32N 56°02' W 003°06'0 0.0
2016-Feb-11 16:32N 56°02' W 003°06'0 0.0
2016-Feb-11 15:32N 56°02' W 003°06'0 0.0
2016-Feb-11 14:32N 56°02' W 003°06'0 0.1
2016-Feb-11 13:33N 56°02' W 003°06'8 7.8
2016-Feb-11 12:33N 56°05' W 002°54'1212.4
2016-Feb-11 11:34N 56°06' W 002°31'1212.0
2016-Feb-11 10:34N 56°03' W 002°10'1212.0
2016-Feb-11 09:34N 56°00' W 001°49'59 9.8
2016-Feb-11 03:32N 55°12' W 000°49'8 8.4
2016-Feb-11 02:33N 55°05' W 000°42'9 8.5
2016-Feb-11 01:32N 54°57' W 000°34'9 8.8
2016-Feb-11 00:33N 54°50' W 000°26'9 9.4
2016-Feb-10 23:34N 54°42' W 000°17'10 9.5
2016-Feb-10 22:34N 54°34' W 000°08'1010.3
2016-Feb-10 21:33N 54°26' E 000°01'10 9.9
2016-Feb-10 20:33N 54°17' E 000°10'10 9.7
2016-Feb-10 19:33N 54°09' E 000°18'8 8.2
2016-Feb-10 18:33N 54°02' E 000°27'8 7.5
2016-Feb-10 17:32N 53°55' E 000°33'34 7.6
2016-Feb-10 13:05N 53°27' E 001°04'1711.1
2016-Feb-10 11:31N 53°12' E 001°19'1010.3
2016-Feb-10 10:34N 53°04' E 001°27'9 9.0
2016-Feb-10 09:33N 52°57' E 001°37'8 8.4
2016-Feb-10 08:33N 52°51' E 001°46'9 8.9
2016-Feb-10 07:33N 52°46' E 001°59'17 7.4
2016-Feb-10 05:12N 52°36' E 002°23'5 7.3
2016-Feb-10 04:33N 52°32' E 002°23'53 7.6
2016-Feb-09 21:33N 51°45' E 003°05'10 9.6
2016-Feb-09 20:33N 51°41' E 003°19'1111.0
2016-Feb-09 19:34N 51°31' E 003°27'1111.4
2016-Feb-09 18:33N 51°25' E 003°42'1110.5
2016-Feb-09 17:33N 51°26' E 003°59'1110.7
2016-Feb-09 16:33N 51°21' E 004°15'6 5.9
2016-Feb-09 15:33N 51°17' E 004°20'0 0.1
2016-Feb-09 13:17N 51°17' E 004°20'0 0.0
2016-Feb-09 12:29N 51°17' E 004°20'0 0.0
2016-Feb-09 11:26N 51°17' E 004°20'0 0.0
2016-Feb-09 10:14N 51°17' E 004°20'0 0.0
2016-Feb-09 09:26N 51°17' E 004°20'0 0.0
2016-Feb-09 08:32N 51°17' E 004°20'0 0.0
2016-Feb-09 07:23N 51°17' E 004°20'0 0.0
2016-Feb-09 06:32N 51°17' E 004°20'0 0.0
2016-Feb-09 05:32N 51°17' E 004°20'0 0.0
2016-Feb-09 04:32N 51°17' E 004°20'0 0.0
2016-Feb-09 03:32N 51°17' E 004°20'0 0.0
2016-Feb-09 02:32N 51°17' E 004°20'0 0.0
2016-Feb-09 01:32N 51°17' E 004°20'0 0.0
2016-Feb-09 00:32N 51°17' E 004°20'0 0.0
2016-Feb-08 23:20N 51°17' E 004°20'0 0.0
2016-Feb-08 22:26N 51°17' E 004°20'0 0.0
2016-Feb-08 21:32N 51°17' E 004°20'0 0.0
2016-Feb-08 20:32N 51°17' E 004°20'0 0.0
2016-Feb-08 19:32N 51°17' E 004°20'0 0.0
2016-Feb-08 18:23N 51°17' E 004°20'0 0.0
2016-Feb-08 17:29N 51°17' E 004°20'0 0.3
2016-Feb-08 16:33N 51°17' E 004°20'2 1.8
2016-Feb-08 15:33N 51°18' E 004°18'7 7.1
2016-Feb-08 14:31N 51°23' E 004°09'8 8.0
2016-Feb-08 13:33N 51°24' E 003°57'9 9.4
2016-Feb-08 12:33N 51°25' E 003°42'9 9.0
2016-Feb-08 11:33N 51°24' E 003°28'9 9.3
2016-Feb-08 10:33N 51°24' E 003°13'1211.7
2016-Feb-08 09:33N 51°22' E 002°55'8 7.9
2016-Feb-08 08:33N 51°24' E 002°43'2 1.4
2016-Feb-08 07:26N 51°25' E 002°44'7 6.2
2016-Feb-08 06:17N 51°29' E 002°55'3 3.6
2016-Feb-08 05:33N 51°30' E 002°58'6 6.0
2016-Feb-08 04:33N 51°35' E 003°05'6 6.0
2016-Feb-08 03:33N 51°41' E 003°05'2 1.8
2016-Feb-08 02:32N 51°42' E 003°06'0 0.5
2016-Feb-08 01:33N 51°43' E 003°06'1 0.8
2016-Feb-08 00:32N 51°43' E 003°07'2 0.9
2016-Feb-07 22:32N 51°45' E 003°09'2 0.7
2016-Feb-07 19:07N 51°47' E 003°10'3 5.0
2016-Feb-07 18:28N 51°45' E 003°06'57 6.4
2016-Feb-07 09:33N 52°30' E 002°10'1111.2
2016-Feb-07 08:33N 52°41' E 002°03'1211.8
2016-Feb-07 07:33N 52°49' E 001°49'1313.2
2016-Feb-07 06:33N 52°58' E 001°33'1312.7
2016-Feb-07 05:33N 53°07' E 001°19'1211.8
2016-Feb-07 04:33N 53°16' E 001°06'1111.5
2016-Feb-07 03:33N 53°23' E 000°50'1312.2
2016-Feb-07 02:31N 53°29' E 000°32'1111.3
2016-Feb-07 01:33N 53°32' E 000°15'9 9.0
2016-Feb-07 00:34N 53°35' E 000°00'9 8.8
2016-Feb-06 23:33N 53°40' W 000°12'4 3.9
2016-Feb-06 22:32N 53°44' W 000°15'0 0.0
2016-Feb-06 21:31N 53°44' W 000°15'0 0.0
2016-Feb-06 20:32N 53°44' W 000°15'0 0.0
2016-Feb-06 19:32N 53°44' W 000°15'0 0.0
2016-Feb-06 18:32N 53°44' W 000°15'0 0.0
2016-Feb-06 17:31N 53°44' W 000°15'0 0.0
2016-Feb-06 16:32N 53°44' W 000°15'0 0.0
2016-Feb-06 15:32N 53°44' W 000°15'0 0.0
2016-Feb-06 14:32N 53°44' W 000°15'0 0.0
2016-Feb-06 13:32N 53°44' W 000°15'0 0.0
2016-Feb-06 12:32N 53°44' W 000°15'0 0.0
2016-Feb-06 11:32N 53°44' W 000°15'0 0.0
2016-Feb-06 10:32N 53°44' W 000°15'0 0.0
2016-Feb-06 09:29N 53°44' W 000°15'0 0.0
2016-Feb-06 08:31N 53°44' W 000°15'0 0.0
2016-Feb-06 07:32N 53°44' W 000°15'0 0.0
2016-Feb-06 06:32N 53°44' W 000°15'0 0.0
2016-Feb-06 05:34N 53°44' W 000°15'4 4.2
2016-Feb-06 04:33N 53°40' W 000°12'9 9.1
2016-Feb-06 03:33N 53°35' E 000°01'9 9.2
2016-Feb-06 02:33N 53°34' E 000°17'7 7.4
2016-Feb-06 01:33N 53°41' E 000°22'0 0.3
2016-Feb-06 00:33N 53°41' E 000°21'3 3.1
2016-Feb-05 23:33N 53°44' E 000°20'3 3.1
2016-Feb-05 22:33N 53°47' E 000°18'4 3.8
2016-Feb-05 21:33N 53°50' E 000°16'8 8.0
2016-Feb-05 20:33N 53°58' E 000°12'8 8.0
2016-Feb-05 19:34N 54°05' E 000°07'8 7.6
2016-Feb-05 18:34N 54°13' E 000°03'10 9.6
2016-Feb-05 17:33N 54°21' W 000°05'1111.4
2016-Feb-05 16:33N 54°31' W 000°13'1312.4
2016-Feb-05 15:33N 54°43' W 000°22'1212.2
2016-Feb-05 14:33N 54°54' W 000°32'1312.6
2016-Feb-05 13:33N 55°05' W 000°41'6412.0
2016-Feb-05 08:16N 55°59' W 001°41'912.0
2016-Feb-05 07:34N 56°04' W 001°53'1211.6
2016-Feb-05 06:33N 56°06' W 002°13'1312.9
2016-Feb-05 05:33N 56°06' W 002°37'1312.6
2016-Feb-05 04:34N 56°04' W 002°59'1312.7
2016-Feb-05 03:33N 56°01' W 003°21'11 9.3
2016-Feb-05 02:20N 56°02' W 003°41'0 0.0
2016-Feb-04 08:19N 56°02' W 003°42'1 0.7
2016-Feb-04 07:31N 56°02' W 003°41'9 9.4
2016-Feb-04 06:33N 56°00' W 003°25'1010.4
2016-Feb-04 05:33N 56°02' W 003°07'0 0.3
2016-Feb-04 04:33N 56°02' W 003°06'0 0.0
2016-Feb-04 03:33N 56°02' W 003°06'0 0.0
2016-Feb-04 02:33N 56°02' W 003°06'0 0.0
2016-Feb-04 01:33N 56°02' W 003°06'0 0.0
2016-Feb-04 00:33N 56°02' W 003°06'0 0.0
2016-Feb-03 23:33N 56°02' W 003°06'0 0.0
2016-Feb-03 22:33N 56°02' W 003°06'0 0.0
2016-Feb-03 21:33N 56°02' W 003°06'0 0.0
2016-Feb-03 20:33N 56°02' W 003°06'0 0.0
2016-Feb-03 19:33N 56°02' W 003°06'0 0.0
2016-Feb-03 18:33N 56°02' W 003°06'0 0.0
2016-Feb-03 17:33N 56°02' W 003°06'0 0.0
2016-Feb-03 16:33N 56°02' W 003°06'0 0.0
2016-Feb-03 15:33N 56°02' W 003°06'0 0.0
2016-Feb-03 14:33N 56°02' W 003°06'0 0.0
2016-Feb-03 13:33N 56°02' W 003°06'0 0.0
2016-Feb-03 12:33N 56°02' W 003°06'0 0.0
2016-Feb-03 11:33N 56°02' W 003°06'0 0.0
2016-Feb-03 10:33N 56°02' W 003°06'0 0.0
2016-Feb-03 09:33N 56°02' W 003°06'0 0.1
2016-Feb-03 08:33N 56°02' W 003°07'0 0.0
2016-Feb-03 07:33N 56°02' W 003°07'0 0.3
2016-Feb-03 06:33N 56°02' W 003°06'8 7.5
2016-Feb-03 05:34N 56°05' W 002°54'9 9.2
2016-Feb-03 04:34N 56°08' W 002°38'5 4.6
2016-Feb-03 03:34N 56°08' W 002°46'4 4.2
2016-Feb-03 02:34N 56°07' W 002°54'1 1.4
2016-Feb-03 01:34N 56°07' W 002°51'1 1.1
2016-Feb-03 00:34N 56°07' W 002°50'2 1.7
2016-Feb-02 23:34N 56°08' W 002°47'2 2.4
2016-Feb-02 22:34N 56°08' W 002°42'3 2.6
2016-Feb-02 21:34N 56°08' W 002°38'5 5.2
2016-Feb-02 20:34N 56°07' W 002°47'4 4.5
2016-Feb-02 19:33N 56°07' W 002°55'2 2.2
2016-Feb-02 18:34N 56°07' W 002°51'2 1.8
2016-Feb-02 17:34N 56°06' W 002°48'1 1.3
2016-Feb-02 16:34N 56°06' W 002°46'2 1.6
2016-Feb-02 15:34N 56°06' W 002°43'1 1.0
2016-Feb-02 14:34N 56°06' W 002°41'1 0.8
2016-Feb-02 13:34N 56°07' W 002°40'1 0.5
2016-Feb-02 12:33N 56°07' W 002°39'1 0.8
2016-Feb-02 11:33N 56°08' W 002°39'8 7.8
2016-Feb-02 10:34N 56°07' W 002°53'1 0.8
2016-Feb-02 09:34N 56°07' W 002°51'3 2.6
2016-Feb-02 08:34N 56°07' W 002°47'2 2.4
2016-Feb-02 07:34N 56°08' W 002°43'1 0.9
2016-Feb-02 06:33N 56°08' W 002°41'2 1.9
2016-Feb-02 05:34N 56°08' W 002°44'  
Track history (hours):
 
Tides and Currents Weather Stations Pressure Air Temp Water Temp Dewpoint Dewpoint Depression Visibility Wind Speed Wind Dir Waves Ship Positions

Clipper Saga

Last reported at 2016-Feb-12 05:32 UTC. Time now 2016-Feb-12 05:38 UTC.
Position N 56°02' W 003°06'.

Length 89 m; draft 5.9 m.

Type: Ship (hazmat cat C). MMSI: 246657008.

Date/timePositionNaut miles runAvg speedWind from/ knotsBaromVisibWave heightAir tempDewpointWater temp
2016-Feb-12 05:32N 56°02' W 003°06'0 0.0
2016-Feb-12 04:32N 56°02' W 003°06'0 0.0
2016-Feb-12 03:32N 56°02' W 003°06'0 0.0
2016-Feb-12 02:32N 56°02' W 003°06'0 0.0
2016-Feb-12 01:32N 56°02' W 003°06'0 0.0
2016-Feb-12 00:32N 56°02' W 003°06'0 0.0
2016-Feb-11 23:32N 56°02' W 003°06'0 0.0
2016-Feb-11 22:32N 56°02' W 003°06'0 0.0
2016-Feb-11 21:32N 56°02' W 003°06'0 0.0
2016-Feb-11 20:32N 56°02' W 003°06'0 0.1
2016-Feb-11 19:32N 56°02' W 003°06'0 0.0
2016-Feb-11 18:32N 56°02' W 003°06'0 0.0
2016-Feb-11 17:32N 56°02' W 003°06'0 0.0
2016-Feb-11 16:32N 56°02' W 003°06'0 0.0
2016-Feb-11 15:32N 56°02' W 003°06'0 0.0
2016-Feb-11 14:32N 56°02' W 003°06'0 0.1
2016-Feb-11 13:33N 56°02' W 003°06'8 7.8
2016-Feb-11 12:33N 56°05' W 002°54'1212.4
2016-Feb-11 11:34N 56°06' W 002°31'1212.0
2016-Feb-11 10:34N 56°03' W 002°10'1212.0
2016-Feb-11 09:34N 56°00' W 001°49'59 9.8
2016-Feb-11 03:32N 55°12' W 000°49'8 8.4
2016-Feb-11 02:33N 55°05' W 000°42'9 8.5
2016-Feb-11 01:32N 54°57' W 000°34'9 8.8
2016-Feb-11 00:33N 54°50' W 000°26'9 9.4
2016-Feb-10 23:34N 54°42' W 000°17'10 9.5
2016-Feb-10 22:34N 54°34' W 000°08'1010.3
2016-Feb-10 21:33N 54°26' E 000°01'10 9.9
2016-Feb-10 20:33N 54°17' E 000°10'10 9.7
2016-Feb-10 19:33N 54°09' E 000°18'8 8.2
2016-Feb-10 18:33N 54°02' E 000°27'8 7.5
2016-Feb-10 17:32N 53°55' E 000°33'34 7.6
2016-Feb-10 13:05N 53°27' E 001°04'1711.1
2016-Feb-10 11:31N 53°12' E 001°19'1010.3
2016-Feb-10 10:34N 53°04' E 001°27'9 9.0
2016-Feb-10 09:33N 52°57' E 001°37'8 8.4
2016-Feb-10 08:33N 52°51' E 001°46'9 8.9
2016-Feb-10 07:33N 52°46' E 001°59'17 7.4
2016-Feb-10 05:12N 52°36' E 002°23'5 7.3
2016-Feb-10 04:33N 52°32' E 002°23'53 7.6
2016-Feb-09 21:33N 51°45' E 003°05'10 9.6
2016-Feb-09 20:33N 51°41' E 003°19'1111.0
2016-Feb-09 19:34N 51°31' E 003°27'1111.4
2016-Feb-09 18:33N 51°25' E 003°42'1110.5
2016-Feb-09 17:33N 51°26' E 003°59'1110.7
2016-Feb-09 16:33N 51°21' E 004°15'6 5.9
2016-Feb-09 15:33N 51°17' E 004°20'0 0.1
2016-Feb-09 13:17N 51°17' E 004°20'0 0.0
2016-Feb-09 12:29N 51°17' E 004°20'0 0.0
2016-Feb-09 11:26N 51°17' E 004°20'0 0.0
2016-Feb-09 10:14N 51°17' E 004°20'0 0.0
2016-Feb-09 09:26N 51°17' E 004°20'0 0.0
2016-Feb-09 08:32N 51°17' E 004°20'0 0.0
2016-Feb-09 07:23N 51°17' E 004°20'0 0.0
2016-Feb-09 06:32N 51°17' E 004°20'0 0.0
2016-Feb-09 05:32N 51°17' E 004°20'0 0.0
2016-Feb-09 04:32N 51°17' E 004°20'0 0.0
2016-Feb-09 03:32N 51°17' E 004°20'0 0.0
2016-Feb-09 02:32N 51°17' E 004°20'0 0.0
2016-Feb-09 01:32N 51°17' E 004°20'0 0.0
2016-Feb-09 00:32N 51°17' E 004°20'0 0.0
2016-Feb-08 23:20N 51°17' E 004°20'0 0.0
2016-Feb-08 22:26N 51°17' E 004°20'0 0.0
2016-Feb-08 21:32N 51°17' E 004°20'0 0.0
2016-Feb-08 20:32N 51°17' E 004°20'0 0.0
2016-Feb-08 19:32N 51°17' E 004°20'0 0.0
2016-Feb-08 18:23N 51°17' E 004°20'0 0.0
2016-Feb-08 17:29N 51°17' E 004°20'0 0.3
2016-Feb-08 16:33N 51°17' E 004°20'2 1.8
2016-Feb-08 15:33N 51°18' E 004°18'7 7.1
2016-Feb-08 14:31N 51°23' E 004°09'8 8.0
2016-Feb-08 13:33N 51°24' E 003°57'9 9.4
2016-Feb-08 12:33N 51°25' E 003°42'9 9.0
2016-Feb-08 11:33N 51°24' E 003°28'9 9.3
2016-Feb-08 10:33N 51°24' E 003°13'1211.7
2016-Feb-08 09:33N 51°22' E 002°55'8 7.9
2016-Feb-08 08:33N 51°24' E 002°43'2 1.4
2016-Feb-08 07:26N 51°25' E 002°44'7 6.2
2016-Feb-08 06:17N 51°29' E 002°55'3 3.6
2016-Feb-08 05:33N 51°30' E 002°58'6 6.0
2016-Feb-08 04:33N 51°35' E 003°05'6 6.0
2016-Feb-08 03:33N 51°41' E 003°05'2 1.8
2016-Feb-08 02:32N 51°42' E 003°06'0 0.5
2016-Feb-08 01:33N 51°43' E 003°06'1 0.8
2016-Feb-08 00:32N 51°43' E 003°07'2 0.9
2016-Feb-07 22:32N 51°45' E 003°09'2 0.7
2016-Feb-07 19:07N 51°47' E 003°10'3 5.0
2016-Feb-07 18:28N 51°45' E 003°06'57 6.4
2016-Feb-07 09:33N 52°30' E 002°10'1111.2
2016-Feb-07 08:33N 52°41' E 002°03'1211.8
2016-Feb-07 07:33N 52°49' E 001°49'1313.2
2016-Feb-07 06:33N 52°58' E 001°33'1312.7
2016-Feb-07 05:33N 53°07' E 001°19'1211.8
2016-Feb-07 04:33N 53°16' E 001°06'1111.5
2016-Feb-07 03:33N 53°23' E 000°50'1312.2
2016-Feb-07 02:31N 53°29' E 000°32'1111.3
2016-Feb-07 01:33N 53°32' E 000°15'9 9.0
2016-Feb-07 00:34N 53°35' E 000°00'9 8.8
2016-Feb-06 23:33N 53°40' W 000°12'4 3.9
2016-Feb-06 22:32N 53°44' W 000°15'0 0.0
2016-Feb-06 21:31N 53°44' W 000°15'0 0.0
2016-Feb-06 20:32N 53°44' W 000°15'0 0.0
2016-Feb-06 19:32N 53°44' W 000°15'0 0.0
2016-Feb-06 18:32N 53°44' W 000°15'0 0.0
2016-Feb-06 17:31N 53°44' W 000°15'0 0.0
2016-Feb-06 16:32N 53°44' W 000°15'0 0.0
2016-Feb-06 15:32N 53°44' W 000°15'0 0.0
2016-Feb-06 14:32N 53°44' W 000°15'0 0.0
2016-Feb-06 13:32N 53°44' W 000°15'0 0.0
2016-Feb-06 12:32N 53°44' W 000°15'0 0.0
2016-Feb-06 11:32N 53°44' W 000°15'0 0.0
2016-Feb-06 10:32N 53°44' W 000°15'0 0.0
2016-Feb-06 09:29N 53°44' W 000°15'0 0.0
2016-Feb-06 08:31N 53°44' W 000°15'0 0.0
2016-Feb-06 07:32N 53°44' W 000°15'0 0.0
2016-Feb-06 06:32N 53°44' W 000°15'0 0.0
2016-Feb-06 05:34N 53°44' W 000°15'4 4.2
2016-Feb-06 04:33N 53°40' W 000°12'9 9.1
2016-Feb-06 03:33N 53°35' E 000°01'9 9.2
2016-Feb-06 02:33N 53°34' E 000°17'7 7.4
2016-Feb-06 01:33N 53°41' E 000°22'0 0.3
2016-Feb-06 00:33N 53°41' E 000°21'3 3.1
2016-Feb-05 23:33N 53°44' E 000°20'3 3.1
2016-Feb-05 22:33N 53°47' E 000°18'4 3.8
2016-Feb-05 21:33N 53°50' E 000°16'8 8.0
2016-Feb-05 20:33N 53°58' E 000°12'8 8.0
2016-Feb-05 19:34N 54°05' E 000°07'8 7.6
2016-Feb-05 18:34N 54°13' E 000°03'10 9.6
2016-Feb-05 17:33N 54°21' W 000°05'1111.4
2016-Feb-05 16:33N 54°31' W 000°13'1312.4
2016-Feb-05 15:33N 54°43' W 000°22'1212.2
2016-Feb-05 14:33N 54°54' W 000°32'1312.6
2016-Feb-05 13:33N 55°05' W 000°41'6412.0
2016-Feb-05 08:16N 55°59' W 001°41'912.0
2016-Feb-05 07:34N 56°04' W 001°53'1211.6
2016-Feb-05 06:33N 56°06' W 002°13'1312.9
2016-Feb-05 05:33N 56°06' W 002°37'1312.6
2016-Feb-05 04:34N 56°04' W 002°59'1312.7
2016-Feb-05 03:33N 56°01' W 003°21'11 9.3
2016-Feb-05 02:20N 56°02' W 003°41'0 0.0
2016-Feb-04 08:19N 56°02' W 003°42'1 0.7
2016-Feb-04 07:31N 56°02' W 003°41'9 9.4
2016-Feb-04 06:33N 56°00' W 003°25'1010.4
2016-Feb-04 05:33N 56°02' W 003°07'0 0.3
2016-Feb-04 04:33N 56°02' W 003°06'0 0.0
2016-Feb-04 03:33N 56°02' W 003°06'0 0.0
2016-Feb-04 02:33N 56°02' W 003°06'0 0.0
2016-Feb-04 01:33N 56°02' W 003°06'0 0.0
2016-Feb-04 00:33N 56°02' W 003°06'0 0.0
2016-Feb-03 23:33N 56°02' W 003°06'0 0.0
2016-Feb-03 22:33N 56°02' W 003°06'0 0.0
2016-Feb-03 21:33N 56°02' W 003°06'0 0.0
2016-Feb-03 20:33N 56°02' W 003°06'0 0.0
2016-Feb-03 19:33N 56°02' W 003°06'0 0.0
2016-Feb-03 18:33N 56°02' W 003°06'0 0.0
2016-Feb-03 17:33N 56°02' W 003°06'0 0.0
2016-Feb-03 16:33N 56°02' W 003°06'0 0.0
2016-Feb-03 15:33N 56°02' W 003°06'0 0.0
2016-Feb-03 14:33N 56°02' W 003°06'0 0.0
2016-Feb-03 13:33N 56°02' W 003°06'0 0.0
2016-Feb-03 12:33N 56°02' W 003°06'0 0.0
2016-Feb-03 11:33N 56°02' W 003°06'0 0.0
2016-Feb-03 10:33N 56°02' W 003°06'0 0.0
2016-Feb-03 09:33N 56°02' W 003°06'0 0.1
2016-Feb-03 08:33N 56°02' W 003°07'0 0.0
2016-Feb-03 07:33N 56°02' W 003°07'0 0.3
2016-Feb-03 06:33N 56°02' W 003°06'8 7.5
2016-Feb-03 05:34N 56°05' W 002°54'9 9.2
2016-Feb-03 04:34N 56°08' W 002°38'5 4.6
2016-Feb-03 03:34N 56°08' W 002°46'4 4.2
2016-Feb-03 02:34N 56°07' W 002°54'1 1.4
2016-Feb-03 01:34N 56°07' W 002°51'1 1.1
2016-Feb-03 00:34N 56°07' W 002°50'2 1.7
2016-Feb-02 23:34N 56°08' W 002°47'2 2.4
2016-Feb-02 22:34N 56°08' W 002°42'3 2.6
2016-Feb-02 21:34N 56°08' W 002°38'5 5.2
2016-Feb-02 20:34N 56°07' W 002°47'4 4.5
2016-Feb-02 19:33N 56°07' W 002°55'2 2.2
2016-Feb-02 18:34N 56°07' W 002°51'2 1.8
2016-Feb-02 17:34N 56°06' W 002°48'1 1.3
2016-Feb-02 16:34N 56°06' W 002°46'2 1.6
2016-Feb-02 15:34N 56°06' W 002°43'1 1.0
2016-Feb-02 14:34N 56°06' W 002°41'1 0.8
2016-Feb-02 13:34N 56°07' W 002°40'1 0.5
2016-Feb-02 12:33N 56°07' W 002°39'1 0.8
2016-Feb-02 11:33N 56°08' W 002°39'8 7.8
2016-Feb-02 10:34N 56°07' W 002°53'1 0.8
2016-Feb-02 09:34N 56°07' W 002°51'3 2.6
2016-Feb-02 08:34N 56°07' W 002°47'2 2.4
2016-Feb-02 07:34N 56°08' W 002°43'1 0.9
2016-Feb-02 06:33N 56°08' W 002°41'2 1.9
2016-Feb-02 05:34N 56°08' W 002°44'  

Dump ship's entire track history